• Join FlightAware (Why Join?)
  • Login
  • US Flag 
01:19PM EDT


 

Airport Tracker/Info


-or-


 

Live Flight TrackerFlight Track Log ✈ EGF4247 ✈ 29-Apr-2013 ✈ KBUF - KORD

Flight Track Log - Related Links

Times and Time Zones

All times are in EDT time to prevent confusion due to time zone crossing. See the EGF4247 flight status page for this flight to view local times or setup timezone preferences in your user account.

Time Position Orientation Groundspeed Altitude Reporting Facility
EDT Latitude Longitude Course Direction KTS MPH feet Rate Location/Type
03:45PM 42.8833 -78.8333 270° West 218 251 4,500  Level Buffalo TRACON
03:45PM 42.8833 -78.8667 270° West 245 282 4,900 2,220 Climbing Buffalo TRACON
03:46PM 42.8833 -78.9667 270° West 271 312 7,400 2,340 Climbing Buffalo TRACON
03:47PM 42.9000 -79.0667 283° West 270 311 9,900 1,920 Climbing Toronto Center
03:48PM 42.9000 -79.1500 270° West 280 322 11,500 1,500 Climbing Toronto Center
03:49PM 42.9167 -79.3000 279° West 310 357 13,000 1,440 Climbing Toronto Center
03:50PM 42.9167 -79.4000 270° West 330 380 14,400 1,440 Climbing Toronto Center
03:51PM 42.9333 -79.5500 279° West 340 391 15,900 1,440 Climbing Toronto Center
03:52PM 42.9333 -79.6500 270° West 350 403 17,300 1,440 Climbing Toronto Center
03:53PM 42.9500 -79.8167 278° West 350 403 18,800 1,440 Climbing Toronto Center
03:54PM 42.9500 -79.9333 270° West 360 414 20,200 1,380 Climbing Toronto Center
03:55PM 42.9667 -80.0667 280° West 360 414 21,600 1,440 Climbing Toronto Center
03:56PM 42.9667 -80.2333 270° West 370 426 23,100 1,440 Climbing Toronto Center
03:57PM 42.9833 -80.3667 280° West 370 426 24,500 1,380 Climbing Toronto Center
03:58PM 43.0000 -80.5000 280° West 370 426 25,900 1,200 Climbing Toronto Center
03:59PM 43.0000 -80.6333 270° West 370 426 26,900 900 Climbing Toronto Center
04:00PM 43.0167 -80.7667 280° West 380 437 27,800 1,020 Climbing Toronto Center
04:01PM 43.0000 -80.9333 262° West 380 437 29,000 1,080 Climbing Toronto Center
04:02PM 43.0167 -81.0667 280° West 380 437 30,000 900 Climbing Toronto Center
04:03PM 43.0167 -81.2000 270° West 380 437 30,900 900 Climbing Toronto Center
04:04PM 43.0167 -81.3667 270° West 390 449 31,900 540 Climbing Toronto Center
04:05PM 43.0167 -81.5000 270° West 400 460 32,000  Climbing Toronto Center
04:06PM 43.0167 -81.6667 270° West 410 472 32,000  Level Toronto Center
04:07PM 43.0167 -81.8167 270° West 410 472 32,000  Level Toronto Center
04:08PM 43.0000 -81.9667 261° West 410 472 32,000  Level Toronto Center
04:09PM 43.0000 -82.1167 270° West 410 472 32,000  Level Toronto Center
04:10PM 43.0000 -82.2833 270° West 410 472 32,000  Level Toronto Center
04:11PM 43.0000 -82.4333 270° West 410 472 32,000  Level Toronto Center
04:12PM 43.0000 -82.6000 270° West 400 460 32,000  Level Toronto Center
04:13PM 42.9833 -82.7500 261° West 400 460 32,000  Level Toronto Center
04:14PM 42.9833 -82.9000 270° West 400 460 32,000  Level Toronto Center
04:15PM 42.9833 -83.0333 270° West 400 460 32,000  Level Toronto Center
04:16PM 42.9833 -83.1833 270° West 390 449 32,000  Level Toronto Center
04:17PM 42.9667 -83.3500 262° West 390 449 32,000  Level Toronto Center
04:18PM 42.9764 -83.4719 276° West 403 464 32,000  Level Cleveland Center
04:19PM 42.9703 -83.6222 267° West 403 464 32,000  Level Cleveland Center
04:20PM 42.9644 -83.7694 267° West 403 464 32,000  Level Cleveland Center
04:21PM 42.9497 -83.9164 262° West 403 464 32,000  Level Cleveland Center
04:22PM 42.9350 -84.0631 262° West 403 464 32,000  Level Cleveland Center
04:24PM 42.8833 -84.3667 257° West 390 449 32,000  Level Toronto Center
04:25PM 42.8833 -84.5333 270° West 400 460 32,000  Level Toronto Center
04:26PM 42.8667 -84.6667 260° West 400 460 32,000  Level Toronto Center
04:27PM 42.8500 -84.8167 261° West 400 460 32,000  Level Toronto Center
04:28PM 42.8167 -84.9833 255° West 400 460 32,000  Level Toronto Center
04:30PM 42.8275 -85.1294 276° West 396 456 32,000 -300 Level Chicago Center
04:31PM 42.8111 -85.2769 261° West 395 455 31,400 -780 Descending Chicago Center
04:32PM 42.7944 -85.4275 261° West 400 460 30,400 -1,020 Descending Chicago Center
04:33PM 42.7681 -85.6075 259° West 403 464 29,400 -1,020 Descending Chicago Center
04:34PM 42.7397 -85.7561 255° West 403 464 28,300 -1,140 Descending Chicago Center
04:35PM 42.7133 -85.9072 257° West 407 468 27,100 -1,260 Descending Chicago Center
04:36PM 42.6850 -86.0603 256° West 412 474 25,700 -1,440 Descending Chicago Center
04:37PM 42.6561 -86.2169 256° West 422 486 24,200 -1,920 Descending Chicago Center
04:38PM 42.6272 -86.3653 255° West 410 472 21,800 -2,460 Descending Chicago Center
04:39PM 42.6017 -86.5061 256° West 386 444 19,200 -2,640 Descending Chicago Center
04:40PM 42.5706 -86.6636 255° West 363 418 16,400 -2,520 Descending Chicago Center
04:41PM 42.5428 -86.7967 254° West 367 422 14,000 -2,280 Descending Chicago Center
04:42PM 42.5083 -86.9192 249° West 351 404 11,800 -1,920 Descending Chicago Center
04:43PM 42.4764 -87.0378 250° West 339 390 10,100 -1,020 Descending Chicago Center
04:44PM 42.4467 -87.1408 249° West 302 348 9,700 -540 Descending Chicago Center
04:45PM 42.4222 -87.2306 250° West 262 302 9,000 -360 Descending Chicago Center
04:46PM 42.3950 -87.3294 250° West 235 270 9,000  Level Chicago Center
04:47PM 42.3756 -87.3953 248° West 217 250 9,000 -360 Level Chicago Center
04:48PM 42.3489 -87.4892 249° West 222 255 8,300 -840 Descending Chicago Center
04:49PM 42.3119 -87.5514 231° Southwest 223 257 7,300 -660 Descending Chicago Center
04:50PM 42.2622 -87.6008 216° Southwest 222 255 7,000 -480 Descending Chicago Center
04:51PM 42.2164 -87.6539 221° Southwest 219 252 6,400 -840 Descending Chicago Center
04:52PM 42.1756 -87.6981 219° Southwest 195 224 5,300 -1,140 Descending Chicago Center
04:53PM 42.1322 -87.7481 221° Southwest 178 205 4,100 -1,200 Descending Chicago Center